sensor_id;sensor_type;location;lat;lon;timestamp;P1;durP1;ratioP1;P2;durP2;ratioP2
8285;SDS011;4181;43.416;24.598;2022-11-15T00:01:07;60.10;;;32.97;;
8285;SDS011;4181;43.416;24.598;2022-11-15T00:03:33;52.67;;;29.37;;
8285;SDS011;4181;43.416;24.598;2022-11-15T00:06:02;60.77;;;32.77;;
8285;SDS011;4181;43.416;24.598;2022-11-15T00:08:30;64.23;;;35.27;;
8285;SDS011;4181;43.416;24.598;2022-11-15T00:10:57;69.83;;;37.70;;
8285;SDS011;4181;43.416;24.598;2022-11-15T00:13:24;67.63;;;36.83;;
8285;SDS011;4181;43.416;24.598;2022-11-15T00:15:49;71.37;;;39.73;;
8285;SDS011;4181;43.416;24.598;2022-11-15T00:18:15;78.03;;;41.33;;
8285;SDS011;4181;43.416;24.598;2022-11-15T00:20:41;78.87;;;41.60;;
8285;SDS011;4181;43.416;24.598;2022-11-15T00:23:07;53.13;;;31.03;;
8285;SDS011;4181;43.416;24.598;2022-11-15T00:25:33;61.30;;;35.23;;
8285;SDS011;4181;43.416;24.598;2022-11-15T00:27:59;54.63;;;32.70;;
8285;SDS011;4181;43.416;24.598;2022-11-15T00:30:25;50.40;;;28.20;;
8285;SDS011;4181;43.416;24.598;2022-11-15T00:32:51;38.10;;;23.43;;
8285;SDS011;4181;43.416;24.598;2022-11-15T00:35:17;37.17;;;22.37;;
8285;SDS011;4181;43.416;24.598;2022-11-15T00:37:43;43.07;;;23.33;;
8285;SDS011;4181;43.416;24.598;2022-11-15T00:40:10;62.83;;;33.50;;
8285;SDS011;4181;43.416;24.598;2022-11-15T00:42:37;75.90;;;40.17;;
8285;SDS011;4181;43.416;24.598;2022-11-15T00:45:03;81.90;;;40.73;;
8285;SDS011;4181;43.416;24.598;2022-11-15T00:47:29;81.53;;;40.70;;
8285;SDS011;4181;43.416;24.598;2022-11-15T00:49:54;87.13;;;44.50;;
8285;SDS011;4181;43.416;24.598;2022-11-15T00:52:20;85.77;;;42.00;;
8285;SDS011;4181;43.416;24.598;2022-11-15T00:54:45;88.13;;;42.73;;
8285;SDS011;4181;43.416;24.598;2022-11-15T00:57:11;81.97;;;41.87;;
8285;SDS011;4181;43.416;24.598;2022-11-15T00:59:36;79.87;;;41.23;;
8285;SDS011;4181;43.416;24.598;2022-11-15T01:02:01;87.87;;;43.10;;
8285;SDS011;4181;43.416;24.598;2022-11-15T01:04:27;92.63;;;43.67;;
8285;SDS011;4181;43.416;24.598;2022-11-15T01:06:53;72.67;;;39.73;;
8285;SDS011;4181;43.416;24.598;2022-11-15T01:09:19;74.43;;;41.03;;
8285;SDS011;4181;43.416;24.598;2022-11-15T01:11:44;79.70;;;41.13;;
8285;SDS011;4181;43.416;24.598;2022-11-15T01:14:09;81.83;;;40.63;;
8285;SDS011;4181;43.416;24.598;2022-11-15T01:16:35;78.20;;;39.47;;
8285;SDS011;4181;43.416;24.598;2022-11-15T01:19:00;82.43;;;40.37;;
8285;SDS011;4181;43.416;24.598;2022-11-15T01:21:26;73.60;;;38.80;;
8285;SDS011;4181;43.416;24.598;2022-11-15T01:23:52;77.83;;;39.23;;
8285;SDS011;4181;43.416;24.598;2022-11-15T01:26:19;74.77;;;38.67;;
8285;SDS011;4181;43.416;24.598;2022-11-15T01:28:45;73.20;;;38.73;;
8285;SDS011;4181;43.416;24.598;2022-11-15T01:31:15;81.10;;;39.93;;
8285;SDS011;4181;43.416;24.598;2022-11-15T01:33:42;66.80;;;36.80;;
8285;SDS011;4181;43.416;24.598;2022-11-15T01:36:10;70.40;;;38.83;;
8285;SDS011;4181;43.416;24.598;2022-11-15T01:38:38;73.37;;;39.33;;
8285;SDS011;4181;43.416;24.598;2022-11-15T01:41:04;69.17;;;39.30;;
8285;SDS011;4181;43.416;24.598;2022-11-15T01:43:31;68.47;;;37.87;;
8285;SDS011;4181;43.416;24.598;2022-11-15T01:46:00;70.67;;;38.03;;
8285;SDS011;4181;43.416;24.598;2022-11-15T01:48:32;72.00;;;39.40;;
8285;SDS011;4181;43.416;24.598;2022-11-15T01:50:59;65.63;;;38.93;;
8285;SDS011;4181;43.416;24.598;2022-11-15T01:53:27;65.67;;;37.70;;
8285;SDS011;4181;43.416;24.598;2022-11-15T01:55:54;67.40;;;37.00;;
8285;SDS011;4181;43.416;24.598;2022-11-15T01:58:21;70.47;;;37.80;;
8285;SDS011;4181;43.416;24.598;2022-11-15T02:00:47;66.50;;;36.17;;
8285;SDS011;4181;43.416;24.598;2022-11-15T02:03:14;65.43;;;35.47;;
8285;SDS011;4181;43.416;24.598;2022-11-15T02:05:40;60.93;;;36.27;;
8285;SDS011;4181;43.416;24.598;2022-11-15T02:08:06;57.83;;;35.13;;
8285;SDS011;4181;43.416;24.598;2022-11-15T02:10:33;58.20;;;36.43;;
8285;SDS011;4181;43.416;24.598;2022-11-15T02:12:59;62.30;;;36.73;;
8285;SDS011;4181;43.416;24.598;2022-11-15T02:15:28;61.07;;;35.33;;
8285;SDS011;4181;43.416;24.598;2022-11-15T02:29:28;59.60;;;35.27;;
8285;SDS011;4181;43.416;24.598;2022-11-15T02:32:06;73.13;;;36.13;;
8285;SDS011;4181;43.416;24.598;2022-11-15T02:34:57;63.83;;;38.00;;
8285;SDS011;4181;43.416;24.598;2022-11-15T02:37:42;60.97;;;37.67;;
8285;SDS011;4181;43.416;24.598;2022-11-15T02:41:14;58.53;;;36.57;;
8285;SDS011;4181;43.416;24.598;2022-11-15T02:43:17;64.30;;;37.10;;
8285;SDS011;4181;43.416;24.598;2022-11-15T02:46:14;64.33;;;37.27;;
8285;SDS011;4181;43.416;24.598;2022-11-15T02:48:47;63.97;;;38.80;;
8285;SDS011;4181;43.416;24.598;2022-11-15T02:51:13;61.03;;;38.17;;
8285;SDS011;4181;43.416;24.598;2022-11-15T02:53:40;61.40;;;38.10;;
8285;SDS011;4181;43.416;24.598;2022-11-15T02:56:07;68.47;;;39.33;;
8285;SDS011;4181;43.416;24.598;2022-11-15T03:07:02;61.73;;;36.17;;
8285;SDS011;4181;43.416;24.598;2022-11-15T03:09:40;59.23;;;37.17;;
8285;SDS011;4181;43.416;24.598;2022-11-15T03:15:01;65.17;;;37.07;;
8285;SDS011;4181;43.416;24.598;2022-11-15T03:17:41;61.67;;;35.87;;
8285;SDS011;4181;43.416;24.598;2022-11-15T03:20:13;62.40;;;37.17;;
8285;SDS011;4181;43.416;24.598;2022-11-15T03:22:42;61.83;;;36.97;;
8285;SDS011;4181;43.416;24.598;2022-11-15T03:25:10;59.07;;;35.27;;
8285;SDS011;4181;43.416;24.598;2022-11-15T03:27:40;61.93;;;37.20;;
8285;SDS011;4181;43.416;24.598;2022-11-15T03:30:09;58.80;;;36.30;;
8285;SDS011;4181;43.416;24.598;2022-11-15T03:32:44;60.73;;;35.43;;
8285;SDS011;4181;43.416;24.598;2022-11-15T03:35:22;54.30;;;33.33;;
8285;SDS011;4181;43.416;24.598;2022-11-15T03:38:05;62.30;;;38.27;;
8285;SDS011;4181;43.416;24.598;2022-11-15T03:40:40;59.33;;;37.27;;
8285;SDS011;4181;43.416;24.598;2022-11-15T03:46:13;57.70;;;34.87;;
8285;SDS011;4181;43.416;24.598;2022-11-15T03:48:53;56.57;;;36.23;;
8285;SDS011;4181;43.416;24.598;2022-11-15T03:51:25;51.80;;;33.17;;
8285;SDS011;4181;43.416;24.598;2022-11-15T03:53:51;51.20;;;32.43;;
8285;SDS011;4181;43.416;24.598;2022-11-15T03:56:16;49.70;;;31.27;;
8285;SDS011;4181;43.416;24.598;2022-11-15T03:58:42;54.47;;;33.63;;
8285;SDS011;4181;43.416;24.598;2022-11-15T04:01:07;52.73;;;32.57;;
8285;SDS011;4181;43.416;24.598;2022-11-15T04:03:33;49.10;;;31.90;;
8285;SDS011;4181;43.416;24.598;2022-11-15T04:05:59;52.23;;;33.40;;
8285;SDS011;4181;43.416;24.598;2022-11-15T04:08:25;53.93;;;33.77;;
8285;SDS011;4181;43.416;24.598;2022-11-15T04:10:50;53.37;;;32.40;;
8285;SDS011;4181;43.416;24.598;2022-11-15T04:13:16;50.33;;;32.57;;
8285;SDS011;4181;43.416;24.598;2022-11-15T04:15:41;49.80;;;31.40;;
8285;SDS011;4181;43.416;24.598;2022-11-15T04:18:07;51.03;;;32.17;;
8285;SDS011;4181;43.416;24.598;2022-11-15T04:20:32;52.93;;;31.93;;
8285;SDS011;4181;43.416;24.598;2022-11-15T04:23:17;52.30;;;32.20;;
8285;SDS011;4181;43.416;24.598;2022-11-15T04:26:16;50.00;;;30.43;;
8285;SDS011;4181;43.416;24.598;2022-11-15T04:28:45;51.50;;;31.53;;
8285;SDS011;4181;43.416;24.598;2022-11-15T04:31:29;51.30;;;31.60;;
8285;SDS011;4181;43.416;24.598;2022-11-15T04:33:55;56.10;;;34.00;;
8285;SDS011;4181;43.416;24.598;2022-11-15T04:36:21;67.83;;;36.30;;
8285;SDS011;4181;43.416;24.598;2022-11-15T04:39:05;51.07;;;32.23;;
8285;SDS011;4181;43.416;24.598;2022-11-15T04:41:31;55.30;;;34.40;;
8285;SDS011;4181;43.416;24.598;2022-11-15T04:43:56;51.93;;;34.47;;
8285;SDS011;4181;43.416;24.598;2022-11-15T04:46:22;52.97;;;34.83;;
8285;SDS011;4181;43.416;24.598;2022-11-15T04:48:48;58.20;;;35.57;;
8285;SDS011;4181;43.416;24.598;2022-11-15T04:51:14;58.90;;;36.83;;
8285;SDS011;4181;43.416;24.598;2022-11-15T04:53:40;49.43;;;31.67;;
8285;SDS011;4181;43.416;24.598;2022-11-15T04:56:06;50.73;;;30.47;;
8285;SDS011;4181;43.416;24.598;2022-11-15T04:58:31;49.40;;;31.37;;
8285;SDS011;4181;43.416;24.598;2022-11-15T05:00:57;49.33;;;30.50;;
8285;SDS011;4181;43.416;24.598;2022-11-15T05:03:22;48.83;;;29.07;;
8285;SDS011;4181;43.416;24.598;2022-11-15T05:06:06;49.80;;;31.40;;
8285;SDS011;4181;43.416;24.598;2022-11-15T05:08:32;53.80;;;34.27;;
8285;SDS011;4181;43.416;24.598;2022-11-15T05:10:57;48.97;;;31.10;;
8285;SDS011;4181;43.416;24.598;2022-11-15T05:13:23;53.87;;;33.37;;
8285;SDS011;4181;43.416;24.598;2022-11-15T05:15:48;50.30;;;34.20;;
8285;SDS011;4181;43.416;24.598;2022-11-15T05:18:14;53.30;;;32.33;;
8285;SDS011;4181;43.416;24.598;2022-11-15T05:20:39;49.23;;;31.63;;
8285;SDS011;4181;43.416;24.598;2022-11-15T05:23:05;55.27;;;33.47;;
8285;SDS011;4181;43.416;24.598;2022-11-15T05:25:30;50.27;;;33.63;;
8285;SDS011;4181;43.416;24.598;2022-11-15T05:27:56;64.30;;;38.47;;
8285;SDS011;4181;43.416;24.598;2022-11-15T05:30:22;62.67;;;36.53;;
8285;SDS011;4181;43.416;24.598;2022-11-15T05:32:47;56.27;;;34.50;;
8285;SDS011;4181;43.416;24.598;2022-11-15T05:35:15;55.47;;;33.60;;
8285;SDS011;4181;43.416;24.598;2022-11-15T05:38:03;51.37;;;31.80;;
8285;SDS011;4181;43.416;24.598;2022-11-15T05:40:28;59.77;;;34.13;;
8285;SDS011;4181;43.416;24.598;2022-11-15T05:42:55;55.93;;;35.67;;
8285;SDS011;4181;43.416;24.598;2022-11-15T05:45:21;56.30;;;34.70;;
8285;SDS011;4181;43.416;24.598;2022-11-15T05:47:47;52.23;;;32.20;;
8285;SDS011;4181;43.416;24.598;2022-11-15T05:50:14;53.53;;;35.27;;
8285;SDS011;4181;43.416;24.598;2022-11-15T05:52:43;50.73;;;33.67;;
8285;SDS011;4181;43.416;24.598;2022-11-15T05:55:11;57.10;;;33.73;;
8285;SDS011;4181;43.416;24.598;2022-11-15T05:57:37;50.43;;;33.63;;
8285;SDS011;4181;43.416;24.598;2022-11-15T06:00:03;50.83;;;31.57;;
8285;SDS011;4181;43.416;24.598;2022-11-15T06:02:29;50.07;;;33.27;;
8285;SDS011;4181;43.416;24.598;2022-11-15T06:04:55;51.07;;;34.50;;
8285;SDS011;4181;43.416;24.598;2022-11-15T06:07:20;52.53;;;34.13;;
8285;SDS011;4181;43.416;24.598;2022-11-15T06:09:45;50.37;;;32.90;;
8285;SDS011;4181;43.416;24.598;2022-11-15T06:12:11;52.90;;;33.13;;
8285;SDS011;4181;43.416;24.598;2022-11-15T06:14:36;51.23;;;33.60;;
8285;SDS011;4181;43.416;24.598;2022-11-15T06:17:02;50.27;;;33.17;;
8285;SDS011;4181;43.416;24.598;2022-11-15T06:19:28;50.37;;;33.20;;
8285;SDS011;4181;43.416;24.598;2022-11-15T06:21:58;51.73;;;33.37;;
8285;SDS011;4181;43.416;24.598;2022-11-15T06:24:26;49.17;;;32.87;;
8285;SDS011;4181;43.416;24.598;2022-11-15T06:26:51;55.20;;;35.00;;
8285;SDS011;4181;43.416;24.598;2022-11-15T06:29:17;52.13;;;33.33;;
8285;SDS011;4181;43.416;24.598;2022-11-15T06:31:42;50.90;;;33.57;;
8285;SDS011;4181;43.416;24.598;2022-11-15T06:34:08;49.20;;;33.07;;
8285;SDS011;4181;43.416;24.598;2022-11-15T06:36:34;54.13;;;36.77;;
8285;SDS011;4181;43.416;24.598;2022-11-15T06:39:01;61.50;;;34.50;;
8285;SDS011;4181;43.416;24.598;2022-11-15T06:41:27;55.13;;;34.43;;
8285;SDS011;4181;43.416;24.598;2022-11-15T06:43:52;59.87;;;39.20;;
8285;SDS011;4181;43.416;24.598;2022-11-15T06:46:18;57.00;;;35.83;;
8285;SDS011;4181;43.416;24.598;2022-11-15T06:48:43;49.80;;;35.23;;
8285;SDS011;4181;43.416;24.598;2022-11-15T06:51:09;48.03;;;34.10;;
8285;SDS011;4181;43.416;24.598;2022-11-15T06:53:34;50.00;;;31.77;;
8285;SDS011;4181;43.416;24.598;2022-11-15T06:56:00;48.87;;;32.73;;
8285;SDS011;4181;43.416;24.598;2022-11-15T06:58:27;50.10;;;32.83;;
8285;SDS011;4181;43.416;24.598;2022-11-15T07:00:53;52.60;;;34.13;;
8285;SDS011;4181;43.416;24.598;2022-11-15T07:03:22;51.20;;;34.20;;
8285;SDS011;4181;43.416;24.598;2022-11-15T07:05:54;54.63;;;36.23;;
8285;SDS011;4181;43.416;24.598;2022-11-15T07:08:21;56.77;;;34.50;;
8285;SDS011;4181;43.416;24.598;2022-11-15T07:10:48;54.27;;;34.27;;
8285;SDS011;4181;43.416;24.598;2022-11-15T07:13:13;45.97;;;33.33;;
8285;SDS011;4181;43.416;24.598;2022-11-15T07:15:39;48.73;;;34.97;;
8285;SDS011;4181;43.416;24.598;2022-11-15T07:18:04;49.17;;;32.90;;
8285;SDS011;4181;43.416;24.598;2022-11-15T07:20:30;62.73;;;45.90;;
8285;SDS011;4181;43.416;24.598;2022-11-15T07:23:04;115.93;;;94.43;;
8285;SDS011;4181;43.416;24.598;2022-11-15T07:25:30;102.93;;;77.17;;
8285;SDS011;4181;43.416;24.598;2022-11-15T07:27:56;80.77;;;60.50;;
8285;SDS011;4181;43.416;24.598;2022-11-15T07:30:23;51.70;;;34.50;;
8285;SDS011;4181;43.416;24.598;2022-11-15T07:32:53;51.27;;;34.47;;
8285;SDS011;4181;43.416;24.598;2022-11-15T07:35:22;50.17;;;32.73;;
8285;SDS011;4181;43.416;24.598;2022-11-15T07:37:59;45.40;;;28.77;;
8285;SDS011;4181;43.416;24.598;2022-11-15T07:40:26;42.63;;;29.70;;
8285;SDS011;4181;43.416;24.598;2022-11-15T07:42:52;40.33;;;29.03;;
8285;SDS011;4181;43.416;24.598;2022-11-15T07:45:23;45.30;;;28.90;;
8285;SDS011;4181;43.416;24.598;2022-11-15T07:47:51;45.27;;;31.40;;
8285;SDS011;4181;43.416;24.598;2022-11-15T07:50:17;41.20;;;28.27;;
8285;SDS011;4181;43.416;24.598;2022-11-15T07:52:42;41.50;;;29.37;;
8285;SDS011;4181;43.416;24.598;2022-11-15T07:55:08;44.63;;;30.43;;
8285;SDS011;4181;43.416;24.598;2022-11-15T07:57:34;45.73;;;32.37;;
8285;SDS011;4181;43.416;24.598;2022-11-15T07:59:59;44.60;;;31.37;;
8285;SDS011;4181;43.416;24.598;2022-11-15T08:02:25;47.97;;;30.47;;
8285;SDS011;4181;43.416;24.598;2022-11-15T08:04:50;44.33;;;29.90;;
8285;SDS011;4181;43.416;24.598;2022-11-15T08:07:15;41.20;;;27.57;;
8285;SDS011;4181;43.416;24.598;2022-11-15T08:09:41;36.43;;;27.63;;
8285;SDS011;4181;43.416;24.598;2022-11-15T08:12:07;42.03;;;27.23;;
8285;SDS011;4181;43.416;24.598;2022-11-15T08:14:32;39.07;;;26.90;;
8285;SDS011;4181;43.416;24.598;2022-11-15T08:16:57;35.57;;;25.20;;
8285;SDS011;4181;43.416;24.598;2022-11-15T08:19:23;42.17;;;27.60;;
8285;SDS011;4181;43.416;24.598;2022-11-15T08:21:48;44.40;;;29.03;;
8285;SDS011;4181;43.416;24.598;2022-11-15T08:24:14;44.57;;;32.37;;
8285;SDS011;4181;43.416;24.598;2022-11-15T08:26:40;47.80;;;31.97;;
8285;SDS011;4181;43.416;24.598;2022-11-15T08:29:06;39.47;;;28.83;;
8285;SDS011;4181;43.416;24.598;2022-11-15T08:31:33;37.57;;;26.83;;
8285;SDS011;4181;43.416;24.598;2022-11-15T08:33:59;40.07;;;28.67;;
8285;SDS011;4181;43.416;24.598;2022-11-15T08:36:25;42.20;;;29.63;;
8285;SDS011;4181;43.416;24.598;2022-11-15T08:38:51;30.47;;;21.53;;
8285;SDS011;4181;43.416;24.598;2022-11-15T08:41:20;32.47;;;21.23;;
8285;SDS011;4181;43.416;24.598;2022-11-15T08:43:55;29.73;;;19.93;;
8285;SDS011;4181;43.416;24.598;2022-11-15T08:46:21;28.40;;;20.30;;
8285;SDS011;4181;43.416;24.598;2022-11-15T08:48:46;26.07;;;20.07;;
8285;SDS011;4181;43.416;24.598;2022-11-15T08:51:12;32.93;;;22.03;;
8285;SDS011;4181;43.416;24.598;2022-11-15T08:53:37;30.97;;;21.03;;
8285;SDS011;4181;43.416;24.598;2022-11-15T08:56:06;33.07;;;22.73;;
8285;SDS011;4181;43.416;24.598;2022-11-15T08:58:33;26.20;;;19.27;;
8285;SDS011;4181;43.416;24.598;2022-11-15T09:00:59;28.57;;;19.73;;
8285;SDS011;4181;43.416;24.598;2022-11-15T09:03:24;25.57;;;18.67;;
8285;SDS011;4181;43.416;24.598;2022-11-15T09:05:53;25.97;;;17.93;;
8285;SDS011;4181;43.416;24.598;2022-11-15T09:08:23;27.07;;;18.47;;
8285;SDS011;4181;43.416;24.598;2022-11-15T09:10:49;28.50;;;19.67;;
8285;SDS011;4181;43.416;24.598;2022-11-15T09:13:15;31.87;;;20.03;;
8285;SDS011;4181;43.416;24.598;2022-11-15T09:15:40;30.80;;;20.70;;
8285;SDS011;4181;43.416;24.598;2022-11-15T09:18:06;29.43;;;21.27;;
8285;SDS011;4181;43.416;24.598;2022-11-15T09:20:31;24.33;;;16.23;;
8285;SDS011;4181;43.416;24.598;2022-11-15T09:23:00;27.37;;;18.03;;
8285;SDS011;4181;43.416;24.598;2022-11-15T09:25:27;26.60;;;21.43;;
8285;SDS011;4181;43.416;24.598;2022-11-15T09:27:53;34.47;;;26.20;;
8285;SDS011;4181;43.416;24.598;2022-11-15T09:30:18;24.20;;;17.90;;
8285;SDS011;4181;43.416;24.598;2022-11-15T09:32:44;27.87;;;18.60;;
8285;SDS011;4181;43.416;24.598;2022-11-15T09:35:09;25.93;;;18.27;;
8285;SDS011;4181;43.416;24.598;2022-11-15T09:37:35;25.23;;;16.73;;
8285;SDS011;4181;43.416;24.598;2022-11-15T09:40:00;23.47;;;16.23;;
8285;SDS011;4181;43.416;24.598;2022-11-15T09:45:28;20.03;;;15.20;;
8285;SDS011;4181;43.416;24.598;2022-11-15T09:51:34;24.07;;;14.43;;
8285;SDS011;4181;43.416;24.598;2022-11-15T09:54:13;24.13;;;13.70;;
8285;SDS011;4181;43.416;24.598;2022-11-15T09:56:47;21.13;;;14.57;;
8285;SDS011;4181;43.416;24.598;2022-11-15T10:01:44;16.33;;;13.20;;
8285;SDS011;4181;43.416;24.598;2022-11-15T10:04:32;17.87;;;13.03;;
8285;SDS011;4181;43.416;24.598;2022-11-15T10:07:01;18.53;;;12.87;;
8285;SDS011;4181;43.416;24.598;2022-11-15T10:09:53;17.27;;;11.67;;
8285;SDS011;4181;43.416;24.598;2022-11-15T10:12:29;14.93;;;12.67;;
8285;SDS011;4181;43.416;24.598;2022-11-15T10:15:08;18.00;;;13.77;;
8285;SDS011;4181;43.416;24.598;2022-11-15T10:18:14;16.03;;;12.27;;
8285;SDS011;4181;43.416;24.598;2022-11-15T10:20:48;18.07;;;12.93;;
8285;SDS011;4181;43.416;24.598;2022-11-15T10:23:18;16.10;;;13.10;;
8285;SDS011;4181;43.416;24.598;2022-11-15T10:25:45;20.70;;;17.23;;
8285;SDS011;4181;43.416;24.598;2022-11-15T10:28:15;16.93;;;13.67;;
8285;SDS011;4181;43.416;24.598;2022-11-15T10:30:51;18.77;;;13.73;;
8285;SDS011;4181;43.416;24.598;2022-11-15T10:36:32;17.10;;;12.80;;
8285;SDS011;4181;43.416;24.598;2022-11-15T10:41:15;12.23;;;9.50;;
8285;SDS011;4181;43.416;24.598;2022-11-15T10:44:01;11.70;;;9.80;;
8285;SDS011;4181;43.416;24.598;2022-11-15T10:46:46;12.53;;;9.87;;
8285;SDS011;4181;43.416;24.598;2022-11-15T10:49:21;13.37;;;10.30;;
8285;SDS011;4181;43.416;24.598;2022-11-15T10:54:24;16.07;;;12.33;;
8285;SDS011;4181;43.416;24.598;2022-11-15T10:56:51;15.97;;;11.83;;
8285;SDS011;4181;43.416;24.598;2022-11-15T10:59:23;15.33;;;11.40;;
8285;SDS011;4181;43.416;24.598;2022-11-15T11:01:52;16.30;;;11.67;;
8285;SDS011;4181;43.416;24.598;2022-11-15T11:04:18;11.70;;;8.93;;
8285;SDS011;4181;43.416;24.598;2022-11-15T11:12:03;11.27;;;9.43;;
8285;SDS011;4181;43.416;24.598;2022-11-15T11:14:34;13.30;;;9.97;;
8285;SDS011;4181;43.416;24.598;2022-11-15T11:17:06;14.50;;;10.87;;
8285;SDS011;4181;43.416;24.598;2022-11-15T11:30:21;28.97;;;20.30;;
8285;SDS011;4181;43.416;24.598;2022-11-15T11:35:43;11.23;;;9.63;;
8285;SDS011;4181;43.416;24.598;2022-11-15T11:38:34;16.50;;;11.00;;
8285;SDS011;4181;43.416;24.598;2022-11-15T11:41:21;11.83;;;9.33;;
8285;SDS011;4181;43.416;24.598;2022-11-15T11:44:23;15.57;;;10.00;;
8285;SDS011;4181;43.416;24.598;2022-11-15T11:47:09;11.70;;;8.50;;
8285;SDS011;4181;43.416;24.598;2022-11-15T11:52:18;12.03;;;9.10;;
8285;SDS011;4181;43.416;24.598;2022-11-15T11:55:26;9.40;;;8.40;;
8285;SDS011;4181;43.416;24.598;2022-11-15T12:00:55;14.07;;;9.43;;
8285;SDS011;4181;43.416;24.598;2022-11-15T12:08:43;10.90;;;9.50;;
8285;SDS011;4181;43.416;24.598;2022-11-15T12:13:44;10.40;;;9.10;;
8285;SDS011;4181;43.416;24.598;2022-11-15T12:16:17;11.23;;;8.57;;
8285;SDS011;4181;43.416;24.598;2022-11-15T12:18:51;9.53;;;8.50;;
8285;SDS011;4181;43.416;24.598;2022-11-15T12:24:01;16.80;;;11.30;;
8285;SDS011;4181;43.416;24.598;2022-11-15T12:26:32;17.10;;;10.67;;
8285;SDS011;4181;43.416;24.598;2022-11-15T12:29:09;13.97;;;10.23;;
8285;SDS011;4181;43.416;24.598;2022-11-15T12:31:41;18.83;;;11.77;;
8285;SDS011;4181;43.416;24.598;2022-11-15T12:36:53;14.33;;;11.63;;
8285;SDS011;4181;43.416;24.598;2022-11-15T12:39:20;17.33;;;11.93;;
8285;SDS011;4181;43.416;24.598;2022-11-15T12:59:50;18.70;;;12.83;;
8285;SDS011;4181;43.416;24.598;2022-11-15T13:03:12;13.93;;;12.20;;
8285;SDS011;4181;43.416;24.598;2022-11-15T13:08:07;19.77;;;12.80;;
8285;SDS011;4181;43.416;24.598;2022-11-15T13:10:32;15.00;;;11.57;;
8285;SDS011;4181;43.416;24.598;2022-11-15T13:13:07;23.13;;;12.73;;
8285;SDS011;4181;43.416;24.598;2022-11-15T13:15:35;17.07;;;11.63;;
8285;SDS011;4181;43.416;24.598;2022-11-15T13:20:57;31.13;;;21.67;;
8285;SDS011;4181;43.416;24.598;2022-11-15T13:23:23;96.37;;;53.20;;
8285;SDS011;4181;43.416;24.598;2022-11-15T13:25:57;12.87;;;10.77;;
8285;SDS011;4181;43.416;24.598;2022-11-15T13:28:46;13.73;;;12.33;;
8285;SDS011;4181;43.416;24.598;2022-11-15T13:31:31;18.37;;;15.10;;
8285;SDS011;4181;43.416;24.598;2022-11-15T13:34:01;21.93;;;14.60;;
8285;SDS011;4181;43.416;24.598;2022-11-15T13:36:31;22.83;;;16.90;;
8285;SDS011;4181;43.416;24.598;2022-11-15T13:41:44;20.37;;;16.50;;
8285;SDS011;4181;43.416;24.598;2022-11-15T13:44:54;15.60;;;14.00;;
8285;SDS011;4181;43.416;24.598;2022-11-15T13:47:19;15.03;;;13.43;;
8285;SDS011;4181;43.416;24.598;2022-11-15T13:49:45;15.27;;;13.07;;
8285;SDS011;4181;43.416;24.598;2022-11-15T13:52:11;14.30;;;12.77;;
8285;SDS011;4181;43.416;24.598;2022-11-15T13:54:44;18.40;;;14.23;;
8285;SDS011;4181;43.416;24.598;2022-11-15T14:00:23;26.27;;;15.00;;
8285;SDS011;4181;43.416;24.598;2022-11-15T14:02:49;74.47;;;36.17;;
8285;SDS011;4181;43.416;24.598;2022-11-15T14:05:19;37.50;;;18.97;;
8285;SDS011;4181;43.416;24.598;2022-11-15T14:07:56;14.53;;;12.30;;
8285;SDS011;4181;43.416;24.598;2022-11-15T14:12:55;29.90;;;25.10;;
8285;SDS011;4181;43.416;24.598;2022-11-15T14:15:32;23.73;;;20.93;;
8285;SDS011;4181;43.416;24.598;2022-11-15T14:17:59;25.27;;;19.30;;
8285;SDS011;4181;43.416;24.598;2022-11-15T14:20:26;19.43;;;16.13;;
8285;SDS011;4181;43.416;24.598;2022-11-15T14:22:57;17.00;;;13.73;;
8285;SDS011;4181;43.416;24.598;2022-11-15T14:25:25;17.23;;;14.23;;
8285;SDS011;4181;43.416;24.598;2022-11-15T14:28:12;20.53;;;15.73;;
8285;SDS011;4181;43.416;24.598;2022-11-15T14:30:38;26.80;;;19.27;;
8285;SDS011;4181;43.416;24.598;2022-11-15T14:35:54;43.47;;;34.47;;
8285;SDS011;4181;43.416;24.598;2022-11-15T14:38:22;48.00;;;36.70;;
8285;SDS011;4181;43.416;24.598;2022-11-15T14:40:51;48.03;;;34.50;;
8285;SDS011;4181;43.416;24.598;2022-11-15T14:43:16;43.90;;;30.70;;
8285;SDS011;4181;43.416;24.598;2022-11-15T14:45:42;33.30;;;25.80;;
8285;SDS011;4181;43.416;24.598;2022-11-15T14:48:07;27.07;;;21.70;;
8285;SDS011;4181;43.416;24.598;2022-11-15T14:50:33;25.10;;;20.47;;
8285;SDS011;4181;43.416;24.598;2022-11-15T14:53:00;21.93;;;17.37;;
8285;SDS011;4181;43.416;24.598;2022-11-15T14:55:27;20.27;;;16.07;;
8285;SDS011;4181;43.416;24.598;2022-11-15T14:57:54;17.03;;;14.77;;
8285;SDS011;4181;43.416;24.598;2022-11-15T15:00:20;17.67;;;15.53;;
8285;SDS011;4181;43.416;24.598;2022-11-15T15:02:47;21.03;;;15.87;;
8285;SDS011;4181;43.416;24.598;2022-11-15T15:05:15;33.70;;;22.43;;
8285;SDS011;4181;43.416;24.598;2022-11-15T15:07:50;21.30;;;18.13;;
8285;SDS011;4181;43.416;24.598;2022-11-15T15:10:18;19.63;;;15.27;;
8285;SDS011;4181;43.416;24.598;2022-11-15T15:12:43;16.77;;;14.27;;
8285;SDS011;4181;43.416;24.598;2022-11-15T15:15:13;22.53;;;17.60;;
8285;SDS011;4181;43.416;24.598;2022-11-15T15:17:40;22.03;;;17.57;;
8285;SDS011;4181;43.416;24.598;2022-11-15T15:20:06;22.13;;;18.07;;
8285;SDS011;4181;43.416;24.598;2022-11-15T15:22:32;25.67;;;18.27;;
8285;SDS011;4181;43.416;24.598;2022-11-15T15:24:57;29.47;;;20.13;;
8285;SDS011;4181;43.416;24.598;2022-11-15T15:27:23;25.60;;;19.73;;
8285;SDS011;4181;43.416;24.598;2022-11-15T15:29:48;23.77;;;18.17;;
8285;SDS011;4181;43.416;24.598;2022-11-15T15:32:14;18.20;;;15.67;;
8285;SDS011;4181;43.416;24.598;2022-11-15T15:34:39;18.60;;;15.37;;
8285;SDS011;4181;43.416;24.598;2022-11-15T15:37:09;27.27;;;17.17;;
8285;SDS011;4181;43.416;24.598;2022-11-15T15:39:34;31.57;;;20.60;;
8285;SDS011;4181;43.416;24.598;2022-11-15T15:42:00;40.07;;;33.43;;
8285;SDS011;4181;43.416;24.598;2022-11-15T15:44:25;28.27;;;20.83;;
8285;SDS011;4181;43.416;24.598;2022-11-15T15:46:51;29.40;;;18.83;;
8285;SDS011;4181;43.416;24.598;2022-11-15T15:49:16;29.93;;;21.10;;
8285;SDS011;4181;43.416;24.598;2022-11-15T15:51:41;43.57;;;30.67;;
8285;SDS011;4181;43.416;24.598;2022-11-15T15:54:07;33.47;;;23.80;;
8285;SDS011;4181;43.416;24.598;2022-11-15T15:56:32;22.67;;;17.27;;
8285;SDS011;4181;43.416;24.598;2022-11-15T15:58:58;23.70;;;17.20;;
8285;SDS011;4181;43.416;24.598;2022-11-15T16:01:23;21.27;;;17.30;;
8285;SDS011;4181;43.416;24.598;2022-11-15T16:03:49;19.77;;;15.63;;
8285;SDS011;4181;43.416;24.598;2022-11-15T16:06:34;17.67;;;15.33;;
8285;SDS011;4181;43.416;24.598;2022-11-15T16:09:03;19.50;;;15.17;;
8285;SDS011;4181;43.416;24.598;2022-11-15T16:11:29;31.50;;;18.13;;
8285;SDS011;4181;43.416;24.598;2022-11-15T16:13:54;21.40;;;17.03;;
8285;SDS011;4181;43.416;24.598;2022-11-15T16:16:20;21.60;;;17.07;;
8285;SDS011;4181;43.416;24.598;2022-11-15T16:18:46;30.00;;;20.43;;
8285;SDS011;4181;43.416;24.598;2022-11-15T16:21:12;19.93;;;15.33;;
8285;SDS011;4181;43.416;24.598;2022-11-15T16:23:37;18.37;;;15.10;;
8285;SDS011;4181;43.416;24.598;2022-11-15T16:26:06;18.23;;;15.20;;
8285;SDS011;4181;43.416;24.598;2022-11-15T16:28:43;22.33;;;15.37;;
8285;SDS011;4181;43.416;24.598;2022-11-15T16:31:09;22.43;;;16.07;;
8285;SDS011;4181;43.416;24.598;2022-11-15T16:33:35;20.80;;;16.63;;
8285;SDS011;4181;43.416;24.598;2022-11-15T16:36:01;27.30;;;22.10;;
8285;SDS011;4181;43.416;24.598;2022-11-15T16:38:28;34.97;;;23.63;;
8285;SDS011;4181;43.416;24.598;2022-11-15T16:40:53;20.10;;;16.97;;
8285;SDS011;4181;43.416;24.598;2022-11-15T16:43:19;29.77;;;24.87;;